createdAt,value
2019-02-04T00:01:17.179Z,8.30
2019-02-04T00:03:47.094Z,9.23
2019-02-04T00:06:17.791Z,7.67
2019-02-04T00:08:47.708Z,7.23
2019-02-04T00:11:17.619Z,7.50
2019-02-04T00:13:47.535Z,7.43
2019-02-04T00:16:17.450Z,7.70
2019-02-04T00:18:48.346Z,8.30
2019-02-04T00:21:19.043Z,7.27
2019-02-04T00:23:49.058Z,7.20
2019-02-04T00:26:19.264Z,7.97
2019-02-04T00:28:49.182Z,7.73
2019-02-04T00:31:19.799Z,7.80
2019-02-04T00:33:49.695Z,9.33
2019-02-04T00:36:19.606Z,9.00
2019-02-04T00:38:49.522Z,9.80
2019-02-04T00:41:19.434Z,9.70
2019-02-04T00:43:49.347Z,9.97
2019-02-04T00:46:19.260Z,8.90
2019-02-04T00:48:50.058Z,8.40
2019-02-04T00:51:19.972Z,8.50
2019-02-04T00:53:50.477Z,7.63
2019-02-04T00:56:20.389Z,8.00
2019-02-04T00:58:50.797Z,7.77
2019-02-04T01:01:20.711Z,7.70
2019-02-04T01:03:51.014Z,8.43
2019-02-04T01:06:21.308Z,7.80
2019-02-04T01:08:53.720Z,8.63
2019-02-04T01:11:23.512Z,8.93
2019-02-04T01:13:53.526Z,8.33
2019-02-04T01:16:23.730Z,8.33
2019-02-04T01:18:53.936Z,8.13
2019-02-04T01:21:23.857Z,7.80
2019-02-04T01:23:53.763Z,8.30
2019-02-04T01:26:24.267Z,8.43
2019-02-04T01:28:54.477Z,8.97
2019-02-04T01:31:24.389Z,10.00
2019-02-04T01:33:54.303Z,15.47
2019-02-04T01:36:24.316Z,15.03
2019-02-04T01:38:55.112Z,13.70
2019-02-04T01:41:25.124Z,13.73
2019-02-04T01:43:55.040Z,15.73
2019-02-04T01:46:25.152Z,16.27
2019-02-04T01:48:55.262Z,27.40
2019-02-04T01:51:25.176Z,27.63
2019-02-04T01:53:55.151Z,27.63
2019-02-04T01:56:25.294Z,24.03
2019-02-04T01:58:55.208Z,19.83
2019-02-04T02:01:25.320Z,15.13
2019-02-04T02:03:55.329Z,12.93
2019-02-04T02:06:25.543Z,11.77
2019-02-04T02:08:55.846Z,11.23
2019-02-04T02:11:25.764Z,9.17
2019-02-04T02:13:55.770Z,8.60
2019-02-04T02:16:25.709Z,11.60
2019-02-04T02:18:57.568Z,10.07
2019-02-04T02:21:27.775Z,10.77
2019-02-04T02:23:57.982Z,12.27
2019-02-04T02:26:27.899Z,14.27
2019-02-04T02:28:57.909Z,17.90
2019-02-04T02:31:27.920Z,27.10
2019-02-04T02:33:57.833Z,34.40
2019-02-04T02:36:27.746Z,24.53
2019-02-04T02:38:57.552Z,25.40
2019-02-04T02:41:27.572Z,25.17
2019-02-04T02:43:57.488Z,28.37
2019-02-04T02:46:27.747Z,28.73
2019-02-04T02:48:58.002Z,20.73
2019-02-04T02:51:27.917Z,19.37
2019-02-04T02:53:57.833Z,17.70
2019-02-04T02:56:27.747Z,17.20
2019-02-04T02:58:57.957Z,15.67
2019-02-04T03:01:27.866Z,16.53
2019-02-04T03:03:57.975Z,16.80
2019-02-04T03:06:27.890Z,17.13
2019-02-04T03:08:57.802Z,17.83
2019-02-04T03:11:27.719Z,18.60
2019-02-04T03:13:58.229Z,17.63
2019-02-04T03:16:28.526Z,19.20
2019-02-04T03:18:58.637Z,18.57
2019-02-04T03:21:28.551Z,19.10
2019-02-04T03:24:00.743Z,20.00
2019-02-04T03:26:30.153Z,22.13
2019-02-04T03:29:00.061Z,20.90
2019-02-04T03:31:29.976Z,20.20
2019-02-04T03:33:59.940Z,22.40
2019-02-04T03:36:29.899Z,21.17
2019-02-04T03:38:59.814Z,19.57
2019-02-04T03:41:30.121Z,18.87
2019-02-04T03:44:00.038Z,19.13
2019-02-04T03:46:30.049Z,19.47
2019-02-04T03:49:00.157Z,20.67
2019-02-04T03:51:30.170Z,20.07
2019-02-04T03:54:00.675Z,19.20
2019-02-04T03:56:30.589Z,18.57
2019-02-04T03:59:00.504Z,19.20
2019-02-04T04:01:31.528Z,18.20
2019-02-04T04:04:01.511Z,18.33
2019-02-04T04:06:31.419Z,17.40
2019-02-04T04:09:01.332Z,17.63
2019-02-04T04:11:31.246Z,17.80
2019-02-04T04:14:01.257Z,17.73
2019-02-04T04:16:31.172Z,17.47
2019-02-04T04:19:01.184Z,16.20
2019-02-04T04:21:31.294Z,16.20
2019-02-04T04:24:01.208Z,16.30
2019-02-04T04:26:31.122Z,16.57
2019-02-04T04:29:01.036Z,16.17
2019-02-04T04:31:31.046Z,15.97
2019-02-04T04:34:01.160Z,16.70
2019-02-04T04:36:31.070Z,17.03
2019-02-04T04:39:00.992Z,17.40
2019-02-04T04:41:30.897Z,17.07
2019-02-04T04:44:00.814Z,16.43
2019-02-04T04:46:30.723Z,14.97
2019-02-04T04:49:00.838Z,15.17
2019-02-04T04:51:30.853Z,15.73
2019-02-04T04:54:00.765Z,15.50
2019-02-04T04:56:30.677Z,16.23
2019-02-04T04:59:00.589Z,14.67
2019-02-04T05:01:30.698Z,15.30
2019-02-04T05:04:00.615Z,16.50
2019-02-04T05:06:30.820Z,16.50
2019-02-04T05:09:00.734Z,16.63
2019-02-04T05:11:30.648Z,16.40
2019-02-04T05:14:00.562Z,16.27
2019-02-04T05:16:30.867Z,17.60
2019-02-04T05:19:00.979Z,17.07
2019-02-04T05:21:30.893Z,17.07
2019-02-04T05:24:00.910Z,16.77
2019-02-04T05:26:31.215Z,15.93
2019-02-04T05:29:02.790Z,15.63
2019-02-04T05:31:32.707Z,15.37
2019-02-04T05:34:02.507Z,15.17
2019-02-04T05:36:32.735Z,15.73
2019-02-04T05:39:02.553Z,14.70
2019-02-04T05:41:32.756Z,15.90
2019-02-04T05:44:02.971Z,15.87
2019-02-04T05:46:33.173Z,15.40
2019-02-04T05:49:03.094Z,14.83
2019-02-04T05:51:33.001Z,15.93
2019-02-04T05:54:02.915Z,15.47
2019-02-04T05:56:33.221Z,16.80
2019-02-04T05:59:03.333Z,16.10
2019-02-04T06:01:33.281Z,16.20
2019-02-04T06:04:03.369Z,14.67
2019-02-04T06:06:33.270Z,13.93
2019-02-04T06:09:03.772Z,14.10
2019-02-04T06:11:33.692Z,13.90
2019-02-04T06:14:03.599Z,13.80
2019-02-04T06:16:33.513Z,13.27
2019-02-04T06:19:04.114Z,21.80
2019-02-04T06:21:34.030Z,22.73
2019-02-04T06:24:04.434Z,21.87
2019-02-04T06:26:34.450Z,22.10
2019-02-04T06:29:04.890Z,21.73
2019-02-04T06:31:34.864Z,22.43
2019-02-04T06:34:05.222Z,20.83
2019-02-04T06:36:35.184Z,20.60
2019-02-04T06:39:08.439Z,18.57
2019-02-04T06:41:38.941Z,20.83
2019-02-04T06:44:09.051Z,21.20
2019-02-04T06:46:39.262Z,20.57
2019-02-04T06:49:12.458Z,18.73
2019-02-04T06:51:40.857Z,16.03
2019-02-04T06:54:10.776Z,16.90
2019-02-04T06:56:40.685Z,18.67
2019-02-04T06:59:10.599Z,19.97
2019-02-04T07:01:40.611Z,19.80
2019-02-04T07:04:11.212Z,21.47
2019-02-04T07:06:41.127Z,20.30
2019-02-04T07:09:11.829Z,18.03
2019-02-04T07:11:42.330Z,16.40
2019-02-04T07:14:12.348Z,14.07
2019-02-04T07:16:42.256Z,14.53
2019-02-04T07:19:23.481Z,14.30
2019-02-04T07:21:43.955Z,13.90
2019-02-04T07:24:13.875Z,13.87
2019-02-04T07:26:43.778Z,16.40
2019-02-04T07:29:13.698Z,14.10
2019-02-04T07:31:44.490Z,15.27
2019-02-04T07:34:14.504Z,15.57
2019-02-04T07:36:44.514Z,14.10
2019-02-04T07:39:14.721Z,13.93
2019-02-04T07:41:44.639Z,14.23
2019-02-04T07:44:14.553Z,14.57
2019-02-04T07:46:44.953Z,16.77
2019-02-04T07:49:14.966Z,17.30
2019-02-04T07:51:44.879Z,16.87
2019-02-04T07:54:15.190Z,16.60
2019-02-04T07:56:45.396Z,19.77
2019-02-04T07:59:16.094Z,27.07
2019-02-04T08:01:46.205Z,26.50
2019-02-04T08:04:16.121Z,23.87
2019-02-04T08:06:46.326Z,23.97
2019-02-04T08:09:16.240Z,22.03
2019-02-04T08:11:46.159Z,21.17
2019-02-04T08:14:16.362Z,21.10
2019-02-04T08:16:46.278Z,19.67
2019-02-04T08:19:16.389Z,17.27
2019-02-04T08:21:46.302Z,16.87
2019-02-04T08:24:16.215Z,15.80
2019-02-04T08:26:46.991Z,14.00
2019-02-04T08:29:16.925Z,12.83
2019-02-04T08:31:46.840Z,14.23
2019-02-04T08:34:16.951Z,14.50
2019-02-04T08:36:47.203Z,18.63
2019-02-04T08:39:17.412Z,19.97
2019-02-04T08:41:47.913Z,18.20
2019-02-04T08:44:17.886Z,15.53
2019-02-04T08:46:47.686Z,16.60
2019-02-04T08:49:18.005Z,14.80
2019-02-04T08:51:47.917Z,14.20
2019-02-04T08:54:17.929Z,13.70
2019-02-04T08:56:48.139Z,11.90
2019-02-04T08:59:18.051Z,13.13
2019-02-04T09:01:47.966Z,10.80
2019-02-04T09:04:18.274Z,11.33
2019-02-04T09:06:48.190Z,9.90
2019-02-04T09:09:18.591Z,9.80
2019-02-04T09:11:48.996Z,9.80
2019-02-04T09:14:18.909Z,9.90
2019-02-04T09:16:48.824Z,10.40
2019-02-04T09:19:19.131Z,10.57
2019-02-04T09:21:50.228Z,10.40
2019-02-04T09:24:20.137Z,10.80
2019-02-04T09:26:50.051Z,11.70
2019-02-04T09:29:20.162Z,14.50
2019-02-04T09:31:50.099Z,15.10
2019-02-04T09:34:20.190Z,14.10
2019-02-04T09:36:50.590Z,13.63
2019-02-04T09:39:21.289Z,13.23
2019-02-04T09:41:51.207Z,13.50
2019-02-04T09:44:21.714Z,13.93
2019-02-04T09:46:51.621Z,14.17
2019-02-04T09:49:21.535Z,13.83
2019-02-04T09:51:51.448Z,13.23
2019-02-04T09:54:22.081Z,14.37
2019-02-04T09:56:52.062Z,11.83
2019-02-04T09:59:22.075Z,11.60
2019-02-04T10:01:51.991Z,12.10
2019-02-04T10:04:21.904Z,12.37
2019-02-04T10:06:52.174Z,12.77
2019-02-04T10:09:22.123Z,11.00
2019-02-04T10:11:52.036Z,9.43
2019-02-04T10:14:22.341Z,9.80
2019-02-04T10:16:52.685Z,8.63
2019-02-04T10:19:23.336Z,8.73
2019-02-04T10:21:53.999Z,7.47
2019-02-04T10:24:24.262Z,7.40
2019-02-04T10:26:54.200Z,8.13
2019-02-04T10:29:24.325Z,7.37
2019-02-04T10:31:54.294Z,7.50
2019-02-04T10:34:24.619Z,7.27
2019-02-04T10:36:54.806Z,7.73
2019-02-04T10:39:25.035Z,7.10
2019-02-04T10:41:55.070Z,7.07
2019-02-04T10:44:25.179Z,6.77
2019-02-04T10:46:55.302Z,7.00
2019-02-04T10:49:25.775Z,6.37
2019-02-04T10:51:55.712Z,6.80
2019-02-04T10:54:28.738Z,6.47
2019-02-04T10:56:58.693Z,6.23
2019-02-04T10:59:28.650Z,7.00
2019-02-04T11:01:58.980Z,6.93
2019-02-04T11:04:28.920Z,6.20
2019-02-04T11:06:59.030Z,6.50
2019-02-04T11:09:29.058Z,5.80
2019-02-04T11:11:59.915Z,6.13
2019-02-04T11:14:30.202Z,7.00
2019-02-04T11:17:00.216Z,6.70
2019-02-04T11:19:30.125Z,6.07
2019-02-04T11:22:00.451Z,6.80
2019-02-04T11:24:30.655Z,7.70
2019-02-04T11:27:00.846Z,7.00
2019-02-04T11:29:31.059Z,5.90
2019-02-04T11:32:01.695Z,6.60
2019-02-04T11:34:31.864Z,7.33
2019-02-04T11:37:02.049Z,6.90
2019-02-04T11:39:32.143Z,11.67
2019-02-04T11:42:02.749Z,8.10
2019-02-04T11:44:33.095Z,5.30
2019-02-04T11:47:03.111Z,5.30
2019-02-04T11:49:33.509Z,4.00
2019-02-04T11:52:04.023Z,4.33
2019-02-04T11:54:33.865Z,4.30
2019-02-04T11:57:03.844Z,6.13
2019-02-04T11:59:34.228Z,4.83
2019-02-04T12:02:05.340Z,4.00
2019-02-04T12:04:35.256Z,4.70
2019-02-04T12:07:05.462Z,4.97
2019-02-04T12:09:35.965Z,4.53
2019-02-04T12:12:06.567Z,4.17
2019-02-04T12:14:36.481Z,4.13
2019-02-04T12:17:06.788Z,3.80
2019-02-04T12:19:36.700Z,4.77
2019-02-04T12:22:07.008Z,4.87
2019-02-04T12:24:36.923Z,5.53
2019-02-04T12:27:07.034Z,4.90
2019-02-04T12:29:37.242Z,6.27
2019-02-04T12:32:07.252Z,4.90
2019-02-04T12:34:37.783Z,4.30
2019-02-04T12:37:08.097Z,5.53
2019-02-04T12:39:38.074Z,5.60
2019-02-04T12:42:08.810Z,5.93
2019-02-04T12:44:38.985Z,5.87
2019-02-04T12:47:09.879Z,7.63
2019-02-04T12:49:39.794Z,7.30
2019-02-04T12:52:10.035Z,9.00
2019-02-04T12:54:40.013Z,8.17
2019-02-04T12:57:09.927Z,7.43
2019-02-04T12:59:40.234Z,7.40
2019-02-04T13:02:10.540Z,8.20
2019-02-04T13:04:40.801Z,7.30
2019-02-04T13:07:10.760Z,5.50
2019-02-04T13:09:40.674Z,6.90
2019-02-04T13:12:10.983Z,7.40
2019-02-04T13:14:41.092Z,8.20
2019-02-04T13:17:11.006Z,7.83
2019-02-04T13:19:40.954Z,8.20
2019-02-04T13:22:11.222Z,8.30
2019-02-04T13:24:41.137Z,8.27
2019-02-04T13:27:11.249Z,8.53
2019-02-04T13:29:41.161Z,8.40
2019-02-04T13:32:11.764Z,8.20
2019-02-04T13:34:41.677Z,7.60
2019-02-04T13:37:11.591Z,8.60
2019-02-04T13:39:41.395Z,8.30
2019-02-04T13:42:11.514Z,8.93
2019-02-04T13:44:41.685Z,8.70
2019-02-04T13:47:11.736Z,9.57
2019-02-04T13:49:42.041Z,9.10
2019-02-04T13:52:15.158Z,9.13
2019-02-04T13:54:43.934Z,8.30
2019-02-04T13:57:14.144Z,8.87
2019-02-04T13:59:44.546Z,9.33
2019-02-04T14:02:14.460Z,8.37
2019-02-04T14:04:44.677Z,8.57
2019-02-04T14:07:14.582Z,8.33
2019-02-04T14:09:44.692Z,7.80
2019-02-04T14:12:15.194Z,8.03
2019-02-04T14:14:45.109Z,7.73
2019-02-04T14:17:15.442Z,7.87
2019-02-04T14:19:45.624Z,7.90
2019-02-04T14:22:15.537Z,8.10
2019-02-04T14:24:45.453Z,7.83
2019-02-04T14:27:15.245Z,8.37
2019-02-04T14:29:45.374Z,8.20
2019-02-04T14:32:15.584Z,8.20
2019-02-04T14:34:45.501Z,8.60
2019-02-04T14:37:15.510Z,8.40
2019-02-04T14:39:45.914Z,7.33
2019-02-04T14:42:16.615Z,8.20
2019-02-04T14:44:49.287Z,7.60
2019-02-04T14:47:23.622Z,7.33
2019-02-04T14:50:19.043Z,6.90
2019-02-04T14:52:59.134Z,7.20
2019-02-04T14:55:54.502Z,7.30
2019-02-04T14:58:31.790Z,7.20
2019-02-04T15:01:32.181Z,7.50
2019-02-04T15:04:12.712Z,6.40
2019-02-04T15:07:13.981Z,6.80
2019-02-04T15:10:03.244Z,6.93
2019-02-04T15:13:08.351Z,7.00
2019-02-04T15:16:13.275Z,7.57
2019-02-04T15:19:11.078Z,7.13
2019-02-04T15:21:56.963Z,6.90
2019-02-04T15:24:37.187Z,7.43
2019-02-04T15:27:46.319Z,7.07
2019-02-04T15:30:39.827Z,7.13
2019-02-04T15:33:32.939Z,7.17
2019-02-04T15:36:25.463Z,7.27
2019-02-04T15:39:05.509Z,6.60
2019-02-04T15:42:13.458Z,6.73
2019-02-04T15:44:59.788Z,7.53
2019-02-04T15:47:40.512Z,6.13
2019-02-04T15:50:23.698Z,7.17
2019-02-04T15:52:53.810Z,6.17
2019-02-04T15:55:24.214Z,6.73
2019-02-04T15:57:54.000Z,6.17
2019-02-04T16:00:23.945Z,6.47
2019-02-04T16:02:53.963Z,7.07
2019-02-04T16:05:24.164Z,6.87
2019-02-04T16:07:54.079Z,6.83
2019-02-04T16:10:24.287Z,6.13
2019-02-04T16:12:54.300Z,6.23
2019-02-04T16:15:24.215Z,6.87
2019-02-04T16:17:54.814Z,7.33
2019-02-04T16:20:25.905Z,6.60
2019-02-04T16:22:58.889Z,8.00
2019-02-04T16:25:28.000Z,7.83
2019-02-04T16:27:57.906Z,7.10
2019-02-04T16:30:27.821Z,14.17
2019-02-04T16:32:58.878Z,9.67
2019-02-04T16:35:28.927Z,24.67
2019-02-04T16:37:59.225Z,18.77
2019-02-04T16:40:29.150Z,14.47
2019-02-04T16:42:59.256Z,13.60
2019-02-04T16:45:29.465Z,14.87
2019-02-04T16:47:59.378Z,20.83
2019-02-04T16:50:30.571Z,15.93
2019-02-04T16:53:10.041Z,14.33
2019-02-04T16:55:33.053Z,8.23
2019-02-04T16:58:03.257Z,8.70
2019-02-04T17:00:35.138Z,8.87
2019-02-04T17:03:05.348Z,9.80
2019-02-04T17:05:35.947Z,9.50
2019-02-04T17:08:07.039Z,8.93
2019-02-04T17:10:37.193Z,7.67
2019-02-04T17:13:07.564Z,7.30
2019-02-04T17:15:37.763Z,8.70
2019-02-04T17:18:07.980Z,7.83
2019-02-04T17:20:38.150Z,7.07
2019-02-04T17:23:08.487Z,7.20
2019-02-04T17:25:38.399Z,7.03
2019-02-04T17:28:08.998Z,7.57
2019-02-04T17:30:38.919Z,7.37
2019-02-04T17:33:08.940Z,7.70
2019-02-04T17:35:38.841Z,7.70
2019-02-04T17:38:09.443Z,9.20
2019-02-04T17:40:39.754Z,10.33
2019-02-04T17:43:09.775Z,12.70
2019-02-04T17:45:39.678Z,11.90
2019-02-04T17:48:10.576Z,11.10
2019-02-04T17:50:40.390Z,11.20
2019-02-04T17:53:10.848Z,11.90
2019-02-04T17:55:41.066Z,12.47
2019-02-04T17:58:11.020Z,13.13
2019-02-04T18:00:42.393Z,12.57
2019-02-04T18:03:12.313Z,17.30
2019-02-04T18:05:42.238Z,21.57
2019-02-04T18:09:07.713Z,22.33
2019-02-04T18:11:37.809Z,20.57
2019-02-04T18:14:08.198Z,20.17
2019-02-04T18:16:38.311Z,23.47
2019-02-04T18:19:08.333Z,19.70
2019-02-04T18:21:38.236Z,19.80
2019-02-04T18:24:08.440Z,14.73
2019-02-04T18:26:38.355Z,13.80
2019-02-04T18:29:08.273Z,13.97
2019-02-04T18:31:38.674Z,13.60
2019-02-04T18:34:09.176Z,12.97
2019-02-04T18:36:39.290Z,13.50
2019-02-04T18:39:11.461Z,15.20
2019-02-04T18:41:41.670Z,13.90
2019-02-04T18:44:11.978Z,14.27
2019-02-04T18:46:42.505Z,14.57
2019-02-04T18:49:12.492Z,14.93
2019-02-04T18:51:42.405Z,16.17
2019-02-04T18:54:12.324Z,16.33
2019-02-04T18:56:42.229Z,16.90
2019-02-04T18:59:12.146Z,19.77
2019-02-04T19:01:42.747Z,20.67
2019-02-04T19:04:15.637Z,21.83
2019-02-04T19:06:47.842Z,22.00
2019-02-04T19:09:16.517Z,20.97
2019-02-04T19:11:46.430Z,21.90
2019-02-04T19:14:16.346Z,23.10
2019-02-04T19:16:46.257Z,22.13
2019-02-04T19:19:16.270Z,21.57
2019-02-04T19:21:46.188Z,23.17
2019-02-04T19:24:16.098Z,26.10
2019-02-04T19:26:46.012Z,28.50
2019-02-04T19:29:15.925Z,29.87
2019-02-04T19:31:46.431Z,30.27
2019-02-04T19:34:16.831Z,36.03
2019-02-04T19:36:46.748Z,36.73
2019-02-04T19:39:16.661Z,37.60
2019-02-04T19:41:46.775Z,39.40
2019-02-04T19:44:16.783Z,36.87
2019-02-04T19:46:46.897Z,29.27
2019-02-04T19:49:16.807Z,26.30
2019-02-04T19:51:46.829Z,29.30
2019-02-04T19:54:21.697Z,27.17
2019-02-04T19:56:48.413Z,26.03
2019-02-04T19:59:21.186Z,25.90
2019-02-04T20:01:50.207Z,24.27
2019-02-04T20:04:20.031Z,24.27
2019-02-04T20:06:49.935Z,26.20
2019-02-04T20:09:19.847Z,23.10
2019-02-04T20:11:49.860Z,21.33
2019-02-04T20:14:20.067Z,18.33
2019-02-04T20:16:49.983Z,17.13
2019-02-04T20:19:20.196Z,16.47
2019-02-04T20:21:50.112Z,15.43
2019-02-04T20:24:20.427Z,16.07
2019-02-04T20:26:50.631Z,15.63
2019-02-04T20:29:21.168Z,19.03
2019-02-04T20:31:51.489Z,19.93
2019-02-04T20:34:22.236Z,20.17
2019-02-04T20:36:52.475Z,21.10
2019-02-04T20:39:22.593Z,20.87
2019-02-04T20:41:53.746Z,23.83
2019-02-04T20:44:23.652Z,22.80
2019-02-04T20:46:54.265Z,27.40
2019-02-04T20:49:24.619Z,57.83
2019-02-04T20:51:56.854Z,43.90
2019-02-04T20:54:27.061Z,38.13
2019-02-04T20:56:57.051Z,34.67
2019-02-04T20:59:26.965Z,36.03
2019-02-04T21:01:57.280Z,45.43
2019-02-04T21:04:28.083Z,28.03
2019-02-04T21:06:58.082Z,25.13
2019-02-04T21:09:28.389Z,27.80
2019-02-04T21:11:58.702Z,30.53
2019-02-04T21:14:28.806Z,36.27
2019-02-04T21:17:00.097Z,26.33
2019-02-04T21:19:30.013Z,25.80
2019-02-04T21:22:00.020Z,25.90
2019-02-04T21:24:29.934Z,18.20
2019-02-04T21:26:59.944Z,19.67
2019-02-04T21:29:29.965Z,25.63
2019-02-04T21:32:00.070Z,16.60
2019-02-04T21:34:29.985Z,20.63
2019-02-04T21:37:00.289Z,16.57
2019-02-04T21:39:30.202Z,19.40
2019-02-04T21:42:00.115Z,19.03
2019-02-04T21:44:30.179Z,27.20
2019-02-04T21:47:00.143Z,22.97
2019-02-04T21:49:30.349Z,36.50
2019-02-04T21:52:00.851Z,36.87
2019-02-04T21:54:30.769Z,31.83
2019-02-04T21:57:01.365Z,25.60
2019-02-04T21:59:31.475Z,26.13
2019-02-04T22:02:01.587Z,54.07
2019-02-04T22:04:31.498Z,29.53
2019-02-04T22:07:02.918Z,27.60
2019-02-04T22:09:33.203Z,36.63
2019-02-04T22:12:03.203Z,36.23
2019-02-04T22:14:33.227Z,30.33
2019-02-04T22:17:03.328Z,37.23
2019-02-04T22:19:33.129Z,41.53
2019-02-04T22:22:03.057Z,38.87
2019-02-04T22:24:32.969Z,42.97
2019-02-04T22:27:02.883Z,39.67
2019-02-04T22:29:33.193Z,47.80
2019-02-04T22:32:03.202Z,50.53
2019-02-04T22:34:33.730Z,49.47
2019-02-04T22:37:03.720Z,48.33
2019-02-04T22:39:33.827Z,47.30
2019-02-04T22:42:04.037Z,50.90
2019-02-04T22:44:34.110Z,50.23
2019-02-04T22:47:04.058Z,47.97
2019-02-04T22:49:34.861Z,47.77
2019-02-04T22:52:05.314Z,41.43
2019-02-04T22:54:35.277Z,43.93
2019-02-04T22:57:05.484Z,45.90
2019-02-04T22:59:35.494Z,53.60
2019-02-04T23:02:06.939Z,54.17
2019-02-04T23:04:36.894Z,43.93
2019-02-04T23:07:07.201Z,49.43
2019-02-04T23:09:37.311Z,64.50
2019-02-04T23:12:07.617Z,48.60
2019-02-04T23:14:37.726Z,48.77
2019-02-04T23:17:08.332Z,43.70
2019-02-04T23:19:38.245Z,43.00
2019-02-04T23:22:08.453Z,49.13
2019-02-04T23:24:38.560Z,48.23
2019-02-04T23:27:08.775Z,53.17
2019-02-04T23:29:39.088Z,50.93
2019-02-04T23:32:09.189Z,42.60
2019-02-04T23:34:39.100Z,51.30
2019-02-04T23:37:09.017Z,50.20
2019-02-04T23:39:38.963Z,51.90
2019-02-04T23:42:09.825Z,50.17
2019-02-04T23:44:39.836Z,54.20
2019-02-04T23:47:09.749Z,56.97
2019-02-04T23:49:39.959Z,61.37
2019-02-04T23:52:10.067Z,61.37
2019-02-04T23:54:39.982Z,60.90
2019-02-04T23:57:10.195Z,64.07
2019-02-04T23:59:40.104Z,61.67
